createdAt,value
2016-04-13T00:00:33.738Z,12.65
2016-04-13T00:01:16.691Z,12.73
2016-04-13T00:01:59.631Z,12.69
2016-04-13T00:02:42.587Z,12.72
2016-04-13T00:03:25.543Z,12.78
2016-04-13T00:04:08.527Z,12.81
2016-04-13T00:04:51.468Z,12.75
2016-04-13T00:05:34.438Z,12.76
2016-04-13T00:06:17.407Z,12.83
2016-04-13T00:07:00.379Z,12.87
2016-04-13T00:07:43.318Z,12.86
2016-04-13T00:08:26.264Z,12.84
2016-04-13T00:09:09.217Z,12.81
2016-04-13T00:09:52.189Z,12.98
2016-04-13T00:10:35.144Z,12.95
2016-04-13T00:11:18.081Z,12.99
2016-04-13T00:12:01.053Z,12.98
2016-04-13T00:12:43.978Z,13.01
2016-04-13T00:13:26.933Z,12.94
2016-04-13T00:14:09.870Z,12.99
2016-04-13T00:14:52.827Z,12.95
2016-04-13T00:15:35.798Z,12.86
2016-04-13T00:16:18.736Z,12.83
2016-04-13T00:17:01.691Z,12.81
2016-04-13T00:17:44.663Z,12.76
2016-04-13T00:18:27.603Z,12.72
2016-04-13T00:19:10.556Z,12.65
2016-04-13T00:19:53.496Z,12.61
2016-04-13T00:20:37.609Z,12.51
2016-04-13T00:21:20.578Z,12.55
2016-04-13T00:22:03.550Z,12.5
2016-04-13T00:22:46.488Z,12.58
2016-04-13T00:23:29.445Z,12.45
2016-04-13T00:24:12.398Z,12.26
2016-04-13T00:24:55.400Z,12.28
2016-04-13T00:25:38.357Z,12.17
2016-04-13T00:26:21.325Z,12.21
2016-04-13T00:27:04.281Z,12.14
2016-04-13T00:27:47.237Z,12.15
2016-04-13T00:28:30.193Z,12.08
2016-04-13T00:29:13.130Z,12.05
2016-04-13T00:29:56.149Z,12.12
2016-04-13T00:30:39.104Z,12.02
2016-04-13T00:31:22.091Z,12.08
2016-04-13T00:32:05.029Z,12.07
2016-04-13T00:32:47.985Z,11.95
2016-04-13T00:33:30.940Z,12.03
2016-04-13T00:34:13.878Z,11.99
2016-04-13T00:34:56.849Z,11.97
2016-04-13T00:35:39.790Z,11.99
2016-04-13T00:36:22.761Z,12
2016-04-13T00:37:05.729Z,11.93
2016-04-13T00:37:48.701Z,11.95
2016-04-13T00:38:31.484Z,11.93
2016-04-13T00:39:14.437Z,11.97
2016-04-13T00:39:57.378Z,12
2016-04-13T00:40:40.319Z,12.03
2016-04-13T00:41:23.259Z,12.08
2016-04-13T00:42:06.212Z,12.02
2016-04-13T00:42:49.199Z,12.07
2016-04-13T00:43:32.170Z,12.03
2016-04-13T00:44:15.123Z,12
2016-04-13T00:44:58.079Z,12.1
2016-04-13T00:45:41.036Z,12.03
2016-04-13T00:46:23.992Z,11.99
2016-04-13T00:47:06.929Z,11.95
2016-04-13T00:47:49.884Z,11.96
2016-04-13T00:48:32.840Z,11.88
2016-04-13T00:49:15.794Z,11.93
2016-04-13T00:49:58.750Z,11.95
2016-04-13T00:50:41.720Z,11.83
2016-04-13T00:51:24.676Z,11.91
2016-04-13T00:52:07.613Z,11.73
2016-04-13T00:52:50.585Z,11.74
2016-04-13T00:53:33.541Z,11.74
2016-04-13T00:54:16.557Z,11.7
2016-04-13T00:54:59.497Z,11.71
2016-04-13T00:55:42.452Z,11.74
2016-04-13T00:56:25.424Z,11.78
2016-04-13T00:57:08.361Z,11.67
2016-04-13T00:57:51.318Z,11.7
2016-04-13T00:58:34.304Z,11.67
2016-04-13T00:59:17.257Z,11.67
2016-04-13T01:00:00.213Z,11.67
2016-04-13T01:00:43.138Z,11.65
2016-04-13T01:01:26.015Z,11.59
2016-04-13T01:02:08.921Z,11.51
2016-04-13T01:02:51.799Z,11.52
2016-04-13T01:03:34.709Z,11.49
2016-04-13T01:04:17.599Z,11.53
2016-04-13T01:05:00.507Z,11.56
2016-04-13T01:05:43.401Z,11.6
2016-04-13T01:06:26.295Z,11.55
2016-04-13T01:07:09.170Z,11.49
2016-04-13T01:07:52.063Z,11.4
2016-04-13T01:08:34.957Z,11.51
2016-04-13T01:09:17.832Z,11.52
2016-04-13T01:10:00.710Z,11.52
2016-04-13T01:10:43.603Z,11.52
2016-04-13T01:11:26.464Z,11.56
2016-04-13T01:12:09.370Z,11.44
2016-04-13T01:12:52.269Z,11.35
2016-04-13T01:13:35.146Z,11.35
2016-04-13T01:14:18.005Z,11.4
2016-04-13T01:15:00.882Z,11.49
2016-04-13T01:15:43.760Z,11.52
2016-04-13T01:16:26.654Z,11.48
2016-04-13T01:17:09.529Z,11.55
2016-04-13T01:17:52.406Z,11.55
2016-04-13T01:18:35.299Z,11.63
2016-04-13T01:19:18.174Z,11.53
2016-04-13T01:20:01.052Z,11.48
2016-04-13T01:20:43.930Z,11.49
2016-04-13T01:21:26.840Z,11.44
2016-04-13T01:22:08.937Z,11.45
2016-04-13T01:22:51.814Z,11.49
2016-04-13T01:23:34.739Z,11.49
2016-04-13T01:24:17.630Z,11.53
2016-04-13T01:25:00.508Z,11.53
2016-04-13T01:25:43.416Z,11.48
2016-04-13T01:26:26.310Z,11.53
2016-04-13T01:27:09.185Z,11.49
2016-04-13T01:27:52.078Z,11.55
2016-04-13T01:28:34.971Z,11.52
2016-04-13T01:29:17.861Z,11.43
2016-04-13T01:30:00.771Z,11.51
2016-04-13T01:30:43.633Z,11.49
2016-04-13T01:31:26.510Z,11.44
2016-04-13T01:32:09.416Z,11.45
2016-04-13T01:32:52.310Z,11.43
2016-04-13T01:33:35.188Z,11.37
2016-04-13T01:34:18.141Z,11.45
2016-04-13T01:35:01.002Z,11.44
2016-04-13T01:35:43.896Z,11.38
2016-04-13T01:36:26.773Z,11.37
2016-04-13T01:37:09.523Z,11.38
2016-04-13T01:37:52.401Z,11.53
2016-04-13T01:38:35.279Z,11.51
2016-04-13T01:39:18.138Z,11.52
2016-04-13T01:40:01.032Z,11.55
2016-04-13T01:40:43.894Z,11.55
2016-04-13T01:41:26.771Z,11.53
2016-04-13T01:42:08.881Z,11.55
2016-04-13T01:42:51.759Z,11.56
2016-04-13T01:43:34.652Z,11.51
2016-04-13T01:44:17.512Z,11.49
2016-04-13T01:45:00.249Z,11.45
2016-04-13T01:45:43.126Z,11.53
2016-04-13T01:46:25.864Z,11.41
2016-04-13T01:47:08.785Z,11.34
2016-04-13T01:47:51.679Z,11.37
2016-04-13T01:48:34.572Z,11.43
2016-04-13T01:49:17.462Z,11.33
2016-04-13T01:50:00.340Z,11.27
2016-04-13T01:50:43.217Z,11.38
2016-04-13T01:51:26.173Z,11.38
2016-04-13T01:52:09.048Z,11.38
2016-04-13T01:52:51.926Z,11.33
2016-04-13T01:53:34.835Z,11.43
2016-04-13T01:54:17.553Z,11.34
2016-04-13T01:55:00.458Z,11.33
2016-04-13T01:55:43.394Z,11.43
2016-04-13T01:56:26.330Z,11.35
2016-04-13T01:57:09.205Z,11.26
2016-04-13T01:57:52.127Z,11.26
2016-04-13T01:58:34.906Z,11.23
2016-04-13T01:59:17.796Z,11.15
2016-04-13T02:00:00.805Z,11.13
2016-04-13T02:00:43.728Z,10.98
2016-04-13T02:01:26.622Z,10.94
2016-04-13T02:02:09.482Z,10.9
2016-04-13T02:02:52.390Z,10.84
2016-04-13T02:03:35.282Z,10.92
2016-04-13T02:04:18.157Z,10.77
2016-04-13T02:05:01.048Z,10.76
2016-04-13T02:05:43.932Z,10.72
2016-04-13T02:06:26.783Z,10.64
2016-04-13T02:07:09.674Z,10.58
2016-04-13T02:07:52.558Z,10.53
2016-04-13T02:08:35.456Z,10.46
2016-04-13T02:09:18.316Z,10.46
2016-04-13T02:10:01.056Z,10.49
2016-04-13T02:10:43.936Z,10.45
2016-04-13T02:11:26.832Z,10.46
2016-04-13T02:12:09.754Z,10.42
2016-04-13T02:12:52.633Z,10.36
2016-04-13T02:13:35.514Z,10.39
2016-04-13T02:14:18.389Z,10.41
2016-04-13T02:15:01.282Z,10.41
2016-04-13T02:15:44.161Z,10.34
2016-04-13T02:16:27.040Z,10.39
2016-04-13T02:17:09.915Z,10.33
2016-04-13T02:17:52.793Z,10.31
2016-04-13T02:18:35.656Z,10.25
2016-04-13T02:19:18.546Z,10.21
2016-04-13T02:20:01.424Z,10.2
2016-04-13T02:20:44.319Z,10.23
2016-04-13T02:21:27.228Z,10.15
2016-04-13T02:22:10.119Z,10.2
2016-04-13T02:22:52.997Z,10.2
2016-04-13T02:23:35.875Z,10.23
2016-04-13T02:24:18.765Z,10.2
2016-04-13T02:25:01.659Z,10.23
2016-04-13T02:25:44.537Z,10.2
2016-04-13T02:26:27.430Z,10.21
2016-04-13T02:27:10.305Z,10.17
2016-04-13T02:27:53.198Z,10.13
2016-04-13T02:28:36.076Z,10.21
2016-04-13T02:29:18.967Z,10.18
2016-04-13T02:30:01.845Z,10.17
2016-04-13T02:30:44.723Z,10.18
2016-04-13T02:31:27.600Z,10.2
2016-04-13T02:32:10.490Z,10.24
2016-04-13T02:32:53.353Z,10.24
2016-04-13T02:33:36.246Z,10.27
2016-04-13T02:34:19.106Z,10.3
2016-04-13T02:35:01.998Z,10.18
2016-04-13T02:35:44.876Z,10.2
2016-04-13T02:36:27.848Z,10.17
2016-04-13T02:37:10.723Z,10.13
2016-04-13T02:37:53.600Z,10.24
2016-04-13T02:38:36.463Z,10.28
2016-04-13T02:39:19.338Z,10.3
2016-04-13T02:40:02.231Z,10.18
2016-04-13T02:40:45.108Z,10.3
2016-04-13T02:41:27.986Z,10.25
2016-04-13T02:42:10.877Z,10.27
2016-04-13T02:42:53.755Z,10.3
2016-04-13T02:43:36.679Z,10.25
2016-04-13T02:44:19.538Z,10.33
2016-04-13T02:45:02.431Z,10.25
2016-04-13T02:45:45.309Z,10.23
2016-04-13T02:46:28.219Z,10.21
2016-04-13T02:47:11.094Z,10.2
2016-04-13T02:47:53.987Z,10.12
2016-04-13T02:48:36.865Z,10.15
2016-04-13T02:49:19.740Z,10.2
2016-04-13T02:50:02.663Z,10.2
2016-04-13T02:50:45.541Z,10.13
2016-04-13T02:51:28.482Z,10.09
2016-04-13T02:52:10.576Z,10.21
2016-04-13T02:52:53.453Z,10.2
2016-04-13T02:53:36.346Z,10.25
2016-04-13T02:54:19.221Z,10.24
2016-04-13T02:55:02.083Z,10.23
2016-04-13T02:55:44.976Z,10.31
2016-04-13T02:56:27.870Z,10.34
2016-04-13T02:57:10.776Z,10.38
2016-04-13T02:57:53.653Z,10.42
2016-04-13T02:58:36.562Z,10.42
2016-04-13T02:59:19.437Z,10.43
2016-04-13T03:00:02.331Z,10.51
2016-04-13T03:00:45.209Z,10.57
2016-04-13T03:01:28.087Z,10.46
2016-04-13T03:02:10.978Z,10.49
2016-04-13T03:02:53.933Z,10.51
2016-04-13T03:03:36.842Z,10.51
2016-04-13T03:04:19.748Z,10.51
2016-04-13T03:05:02.626Z,10.57
2016-04-13T03:05:45.536Z,10.49
2016-04-13T03:06:28.444Z,10.49
2016-04-13T03:07:11.319Z,10.55
2016-04-13T03:07:54.228Z,10.58
2016-04-13T03:08:37.121Z,10.59
2016-04-13T03:09:20.011Z,10.62
2016-04-13T03:10:02.905Z,10.61
2016-04-13T03:10:45.783Z,10.77
2016-04-13T03:11:28.676Z,10.77
2016-04-13T03:12:11.582Z,10.8
2016-04-13T03:12:54.475Z,10.71
2016-04-13T03:13:37.368Z,10.77
2016-04-13T03:14:20.227Z,10.76
2016-04-13T03:15:03.231Z,10.9
2016-04-13T03:15:46.109Z,10.84
2016-04-13T03:16:29.002Z,10.87
2016-04-13T03:17:11.877Z,10.87
2016-04-13T03:17:54.755Z,10.9
2016-04-13T03:18:37.632Z,10.94
2016-04-13T03:19:20.507Z,10.83
2016-04-13T03:20:03.416Z,10.82
2016-04-13T03:20:46.310Z,10.79
2016-04-13T03:21:29.188Z,10.84
2016-04-13T03:22:12.125Z,10.83
2016-04-13T03:22:54.846Z,10.82
2016-04-13T03:23:36.942Z,10.77
2016-04-13T03:24:19.817Z,10.8
2016-04-13T03:25:02.711Z,10.76
2016-04-13T03:25:45.604Z,10.79
2016-04-13T03:26:28.481Z,10.75
2016-04-13T03:27:11.372Z,10.76
2016-04-13T03:27:54.281Z,10.76
2016-04-13T03:28:37.222Z,10.76
2016-04-13T03:29:20.112Z,10.75
2016-04-13T03:30:03.006Z,10.79
2016-04-13T03:30:45.884Z,10.77
2016-04-13T03:31:28.745Z,10.77
2016-04-13T03:32:11.620Z,10.79
2016-04-13T03:32:54.483Z,10.71
2016-04-13T03:33:37.376Z,10.64
2016-04-13T03:34:20.251Z,10.59
2016-04-13T03:35:03.128Z,10.62
2016-04-13T03:35:46.022Z,10.61
2016-04-13T03:36:28.994Z,10.51
2016-04-13T03:37:11.978Z,10.48
2016-04-13T03:37:54.839Z,10.45
2016-04-13T03:38:37.717Z,10.43
2016-04-13T03:39:20.608Z,10.46
2016-04-13T03:40:03.486Z,10.58
2016-04-13T03:40:46.383Z,10.55
2016-04-13T03:41:29.277Z,10.55
2016-04-13T03:42:12.136Z,10.43
2016-04-13T03:42:54.998Z,10.46
2016-04-13T03:43:37.861Z,10.43
2016-04-13T03:44:20.752Z,10.49
2016-04-13T03:45:03.644Z,10.48
2016-04-13T03:45:46.522Z,10.59
2016-04-13T03:46:29.399Z,10.59
2016-04-13T03:47:12.274Z,10.58
2016-04-13T03:47:55.137Z,10.62
2016-04-13T03:48:38.030Z,10.62
2016-04-13T03:49:20.890Z,10.61
2016-04-13T03:50:03.782Z,10.65
2016-04-13T03:50:46.676Z,10.58
2016-04-13T03:51:29.460Z,10.61
2016-04-13T03:52:12.382Z,10.61
2016-04-13T03:52:55.275Z,10.61
2016-04-13T03:53:38.231Z,10.61
2016-04-13T03:54:21.122Z,10.62
2016-04-13T03:55:04.000Z,10.67
2016-04-13T03:55:46.893Z,10.61
2016-04-13T03:56:29.770Z,10.76
2016-04-13T03:57:12.692Z,10.68
2016-04-13T03:57:55.570Z,10.71
2016-04-13T03:58:38.479Z,10.79
2016-04-13T03:59:21.354Z,10.72
2016-04-13T04:00:04.279Z,10.68
2016-04-13T04:00:47.156Z,10.83
2016-04-13T04:01:30.034Z,10.82
2016-04-13T04:02:12.909Z,10.87
2016-04-13T04:02:55.802Z,10.89
2016-04-13T04:03:38.680Z,10.95
2016-04-13T04:04:21.555Z,10.97
2016-04-13T04:05:04.433Z,10.9
2016-04-13T04:05:47.310Z,10.98
2016-04-13T04:06:30.125Z,10.84
2016-04-13T04:07:13.125Z,10.97
2016-04-13T04:07:56.003Z,10.9
2016-04-13T04:08:38.725Z,10.95
2016-04-13T04:09:22.866Z,10.92
2016-04-13T04:10:05.852Z,10.95
2016-04-13T04:10:48.855Z,10.9
2016-04-13T04:11:31.733Z,11
2016-04-13T04:12:14.702Z,10.98
2016-04-13T04:12:57.689Z,11.07
2016-04-13T04:13:40.583Z,11.04
2016-04-13T04:14:23.489Z,11.05
2016-04-13T04:15:06.429Z,11.16
2016-04-13T04:15:49.322Z,11.13
2016-04-13T04:16:32.559Z,11.08
2016-04-13T04:17:15.449Z,11.16
2016-04-13T04:17:58.358Z,11.08
2016-04-13T04:18:41.455Z,11.02
2016-04-13T04:19:24.377Z,11.01
2016-04-13T04:20:07.317Z,11.01
2016-04-13T04:20:50.366Z,10.97
2016-04-13T04:21:33.243Z,11.04
2016-04-13T04:22:16.197Z,11.01
2016-04-13T04:22:59.075Z,10.98
2016-04-13T04:23:41.968Z,11.02
2016-04-13T04:24:24.859Z,11.07
2016-04-13T04:25:07.846Z,11
2016-04-13T04:25:50.770Z,11.04
2016-04-13T04:26:33.742Z,11.05
2016-04-13T04:27:16.648Z,11.04
2016-04-13T04:27:59.573Z,11.02
2016-04-13T04:28:42.763Z,11.05
2016-04-13T04:29:25.638Z,11.1
2016-04-13T04:30:08.515Z,11.05
2016-04-13T04:30:51.409Z,11.12
2016-04-13T04:31:34.303Z,11.13
2016-04-13T04:32:17.193Z,11.1
2016-04-13T04:33:00.087Z,11.05
2016-04-13T04:33:42.948Z,11.12
2016-04-13T04:34:25.823Z,10.98
2016-04-13T04:35:08.701Z,11.04
2016-04-13T04:35:51.594Z,10.95
2016-04-13T04:36:34.566Z,10.98
2016-04-13T04:37:17.675Z,11.02
2016-04-13T04:38:03.100Z,10.95
2016-04-13T04:38:45.586Z,10.98
2016-04-13T04:39:29.102Z,10.95
2016-04-13T04:40:12.277Z,10.94
2016-04-13T04:40:54.920Z,10.9
2016-04-13T04:41:37.939Z,10.97
2016-04-13T04:42:20.986Z,10.95
2016-04-13T04:43:03.880Z,10.9
2016-04-13T04:43:46.866Z,10.9
2016-04-13T04:44:29.835Z,10.95
2016-04-13T04:45:12.838Z,10.9
2016-04-13T04:45:55.746Z,10.94
2016-04-13T04:46:38.749Z,10.86
2016-04-13T04:47:21.608Z,10.94
2016-04-13T04:48:04.892Z,10.95
2016-04-13T04:48:47.832Z,10.98
2016-04-13T04:49:30.738Z,10.9
2016-04-13T04:50:13.632Z,10.9
2016-04-13T04:50:56.510Z,10.98
2016-04-13T04:51:39.356Z,11.04
2016-04-13T04:52:22.481Z,11.05
2016-04-13T04:53:05.359Z,11
2016-04-13T04:53:48.236Z,11.02
2016-04-13T04:54:31.111Z,11.02
2016-04-13T04:55:14.004Z,10.95
2016-04-13T04:55:56.882Z,11.01
2016-04-13T04:56:39.776Z,11.05
2016-04-13T04:57:22.651Z,10.98
2016-04-13T04:58:05.591Z,11.08
2016-04-13T04:58:48.563Z,11.02
2016-04-13T04:59:31.643Z,11.15
2016-04-13T05:00:14.659Z,11.02
2016-04-13T05:00:57.756Z,11.13
2016-04-13T05:01:41.055Z,11.12
2016-04-13T05:02:23.992Z,11.1
2016-04-13T05:03:06.714Z,11.13
2016-04-13T05:03:49.701Z,11.19
2016-04-13T05:04:32.969Z,11.3
2016-04-13T05:05:15.813Z,11.34
2016-04-13T05:05:58.894Z,11.41
2016-04-13T05:06:42.084Z,11.48
2016-04-13T05:07:25.084Z,11.53
2016-04-13T05:08:08.039Z,11.48
2016-04-13T05:08:50.933Z,11.43
2016-04-13T05:09:33.827Z,11.45
2016-04-13T05:10:16.733Z,11.43
2016-04-13T05:10:59.689Z,11.49
2016-04-13T05:11:42.660Z,11.43
2016-04-13T05:12:25.628Z,11.49
2016-04-13T05:13:08.600Z,11.45
2016-04-13T05:13:51.555Z,11.45
2016-04-13T05:14:34.340Z,11.48
2016-04-13T05:15:17.261Z,11.43
2016-04-13T05:16:00.154Z,11.49
2016-04-13T05:16:43.079Z,11.33
2016-04-13T05:17:26.095Z,11.44
2016-04-13T05:18:09.082Z,11.43
2016-04-13T05:18:52.460Z,11.4
2016-04-13T05:19:35.510Z,11.43
2016-04-13T05:20:18.463Z,11.35
2016-04-13T05:21:01.356Z,11.31
2016-04-13T05:21:44.281Z,11.3
2016-04-13T05:22:27.156Z,11.31
2016-04-13T05:23:10.032Z,11.25
2016-04-13T05:23:52.895Z,11.41
2016-04-13T05:24:35.804Z,11.35
2016-04-13T05:25:18.679Z,11.41
2016-04-13T05:26:01.573Z,11.44
2016-04-13T05:26:44.451Z,11.44
2016-04-13T05:27:27.310Z,11.38
2016-04-13T05:28:10.187Z,11.41
2016-04-13T05:28:53.081Z,11.43
2016-04-13T05:29:35.974Z,11.38
2016-04-13T05:30:18.865Z,11.41
2016-04-13T05:31:01.758Z,11.48
2016-04-13T05:31:44.698Z,11.35
2016-04-13T05:32:27.604Z,11.48
2016-04-13T05:33:10.497Z,11.45
2016-04-13T05:33:53.376Z,11.49
2016-04-13T05:34:36.253Z,11.45
2016-04-13T05:35:19.112Z,11.34
2016-04-13T05:36:01.990Z,11.34
2016-04-13T05:36:44.867Z,11.43
2016-04-13T05:37:27.805Z,11.37
2016-04-13T05:38:10.761Z,11.38
2016-04-13T05:38:53.669Z,11.33
2016-04-13T05:39:36.533Z,11.44
2016-04-13T05:40:19.408Z,11.49
2016-04-13T05:41:02.300Z,11.52
2016-04-13T05:41:45.194Z,11.52
2016-04-13T05:42:28.069Z,11.55
2016-04-13T05:43:10.961Z,11.58
2016-04-13T05:43:53.839Z,11.63
2016-04-13T05:44:36.733Z,11.6
2016-04-13T05:45:19.608Z,11.56
2016-04-13T05:46:02.501Z,11.65
2016-04-13T05:46:45.394Z,11.65
2016-04-13T05:47:28.332Z,11.74
2016-04-13T05:48:11.225Z,11.71
2016-04-13T05:48:54.149Z,11.77
2016-04-13T05:49:37.043Z,11.77
2016-04-13T05:50:19.934Z,11.81
2016-04-13T05:51:02.827Z,11.81
2016-04-13T05:51:45.720Z,11.83
2016-04-13T05:52:28.610Z,11.7
2016-04-13T05:53:11.504Z,11.77
2016-04-13T05:53:54.399Z,11.8
2016-04-13T05:54:37.276Z,11.86
2016-04-13T05:55:20.166Z,11.86
2016-04-13T05:56:03.028Z,11.95
2016-04-13T05:56:45.937Z,11.95
2016-04-13T05:57:28.812Z,11.93
2016-04-13T05:58:11.706Z,11.96
2016-04-13T05:58:54.599Z,11.93
2016-04-13T05:59:37.492Z,11.99
2016-04-13T06:00:20.398Z,11.93
2016-04-13T06:01:03.292Z,11.88
2016-04-13T06:01:46.185Z,11.89
2016-04-13T06:02:29.076Z,12.02
2016-04-13T06:03:11.969Z,12.1
2016-04-13T06:03:54.831Z,12.03
2016-04-13T06:04:37.708Z,12.02
2016-04-13T06:05:20.645Z,12.17
2016-04-13T06:06:03.384Z,12.12
2016-04-13T06:06:46.276Z,12.17
2016-04-13T06:07:29.183Z,12.15
2016-04-13T06:08:12.092Z,12.2
2016-04-13T06:08:54.986Z,12.18
2016-04-13T06:09:37.878Z,12.11
2016-04-13T06:10:20.769Z,12.23
2016-04-13T06:11:03.678Z,12.21
2016-04-13T06:11:46.556Z,12.26
2016-04-13T06:12:29.447Z,12.29
2016-04-13T06:13:12.340Z,12.55
2016-04-13T06:13:55.249Z,12.68
2016-04-13T06:14:38.141Z,12.81
2016-04-13T06:15:21.032Z,12.98
2016-04-13T06:16:03.925Z,13.03
2016-04-13T06:16:46.835Z,13.24
2016-04-13T06:17:29.725Z,13.26
2016-04-13T06:18:12.602Z,13.3
2016-04-13T06:18:55.496Z,13.4
2016-04-13T06:19:38.374Z,13.52
2016-04-13T06:20:21.265Z,13.54
2016-04-13T06:21:04.158Z,13.4
2016-04-13T06:21:47.035Z,13.27
2016-04-13T06:22:29.957Z,13.36
2016-04-13T06:23:12.899Z,13.31
2016-04-13T06:23:55.807Z,13.24
2016-04-13T06:24:38.684Z,13.3
2016-04-13T07:47:57.485Z,16.87
2016-04-13T07:48:40.379Z,16.94
2016-04-13T07:49:23.238Z,17.14
2016-04-13T07:50:06.132Z,17.17
2016-04-13T07:50:49.010Z,17.27
2016-04-13T07:51:31.900Z,17.38
2016-04-13T07:52:15.075Z,17.52
2016-04-13T07:52:57.968Z,17.68
2016-04-13T07:53:40.846Z,17.68
2016-04-13T07:54:23.752Z,17.8
2016-04-13T07:55:06.473Z,17.82
2016-04-13T07:55:49.366Z,18.02
2016-04-13T07:56:32.257Z,18
2016-04-13T07:57:15.151Z,18.09
2016-04-13T07:57:58.059Z,18.12
2016-04-13T07:58:40.938Z,18.28
2016-04-13T07:59:23.828Z,18.37
2016-04-13T08:00:06.690Z,18.45
2016-04-13T08:00:49.599Z,18.53
2016-04-13T08:01:32.505Z,18.53
2016-04-13T08:02:15.415Z,18.57
2016-04-13T08:02:58.307Z,18.55
2016-04-13T08:03:41.201Z,18.63
2016-04-13T08:04:24.091Z,18.73
2016-04-13T08:05:06.968Z,18.74
2016-04-13T08:05:49.878Z,18.82
2016-04-13T08:06:32.596Z,18.76
2016-04-13T08:07:15.678Z,18.74
2016-04-13T08:07:58.617Z,18.85
2016-04-13T08:08:41.531Z,18.78
2016-04-13T08:09:24.422Z,18.71
2016-04-13T08:10:07.314Z,18.67
2016-04-13T08:10:50.208Z,18.68
2016-04-13T08:11:33.114Z,18.85
2016-04-13T08:12:15.992Z,18.86
2016-04-13T08:12:58.729Z,18.83
2016-04-13T08:13:41.608Z,18.94
2016-04-13T08:14:24.498Z,19.01
2016-04-13T08:15:07.375Z,18.98
2016-04-13T08:15:50.269Z,19
2016-04-13T08:16:33.175Z,19.01
2016-04-13T08:17:16.069Z,19
2016-04-13T08:17:58.946Z,18.92
2016-04-13T08:18:41.855Z,18.89
2016-04-13T08:19:24.730Z,18.6
2016-04-13T08:20:07.639Z,18.49
2016-04-13T08:20:50.516Z,18.45
2016-04-13T08:21:33.407Z,18.48
2016-04-13T08:22:16.285Z,18.58
2016-04-13T08:22:59.116Z,18.6
2016-04-13T08:23:42.025Z,18.57
2016-04-13T08:24:24.619Z,18.64
2016-04-13T08:25:07.513Z,18.7
2016-04-13T08:25:50.421Z,18.73
2016-04-13T08:26:33.296Z,18.88
2016-04-13T08:27:16.205Z,18.76
2016-04-13T08:27:59.113Z,18.74
2016-04-13T08:28:42.007Z,18.64
2016-04-13T08:29:24.960Z,18.52
2016-04-13T08:30:07.869Z,18.53
2016-04-13T08:30:50.762Z,18.53
2016-04-13T08:31:33.668Z,18.39
2016-04-13T08:32:16.578Z,18.16
2016-04-13T08:32:59.470Z,17.94
2016-04-13T08:33:42.364Z,18.13
2016-04-13T08:34:25.223Z,18.05
2016-04-13T08:35:08.132Z,18.09
2016-04-13T08:35:51.009Z,18.18
2016-04-13T08:36:33.916Z,18.24
2016-04-13T08:37:16.717Z,18.52
2016-04-13T08:37:59.687Z,18.46
2016-04-13T08:38:42.597Z,18.45
2016-04-13T08:39:25.472Z,18.24
2016-04-13T08:40:08.380Z,18.09
2016-04-13T08:40:51.273Z,17.94
2016-04-13T08:41:34.164Z,17.75
2016-04-13T08:42:17.058Z,17.66
2016-04-13T08:42:59.950Z,17.68
2016-04-13T08:43:42.875Z,17.8
2016-04-13T08:44:25.750Z,17.82
2016-04-13T08:45:08.658Z,17.82
2016-04-13T08:45:51.536Z,17.76
2016-04-13T08:46:34.443Z,17.72
2016-04-13T08:47:17.352Z,17.66
2016-04-13T08:48:00.261Z,17.82
2016-04-13T08:48:43.155Z,17.82
2016-04-13T08:49:25.905Z,17.95
2016-04-13T08:50:08.798Z,17.93
2016-04-13T08:50:51.707Z,17.8
2016-04-13T08:51:34.597Z,17.79
2016-04-13T08:52:17.397Z,17.88
2016-04-13T08:53:00.352Z,17.97
2016-04-13T08:53:43.246Z,17.91
2016-04-13T08:54:26.152Z,18.06
2016-04-13T08:55:09.030Z,17.84
2016-04-13T08:55:51.939Z,17.87
2016-04-13T08:56:34.861Z,17.97
2016-04-13T08:57:17.755Z,17.98
2016-04-13T08:58:00.648Z,18.05
2016-04-13T08:58:43.557Z,18.05
2016-04-13T08:59:26.463Z,17.95
2016-04-13T09:00:09.356Z,17.91
2016-04-13T09:00:52.249Z,17.97
2016-04-13T09:01:35.140Z,17.94
2016-04-13T09:02:18.034Z,17.82
2016-04-13T09:03:00.926Z,17.8
2016-04-13T09:03:43.851Z,17.79
2016-04-13T09:04:26.742Z,17.78
2016-04-13T09:05:09.650Z,17.68
2016-04-13T09:05:52.528Z,17.57
2016-04-13T09:06:35.419Z,17.34
2016-04-13T09:07:18.468Z,17.32
2016-04-13T09:08:01.362Z,17.23
2016-04-13T09:08:44.286Z,17.02
2016-04-13T09:09:27.177Z,16.97
2016-04-13T09:10:10.070Z,16.86
2016-04-13T09:10:52.948Z,16.86
2016-04-13T09:11:35.870Z,16.89
2016-04-13T09:12:18.763Z,16.98
2016-04-13T09:13:01.719Z,17.01
2016-04-13T09:13:44.612Z,16.94
2016-04-13T09:14:27.503Z,16.66
2016-04-13T09:15:10.381Z,16.44
2016-04-13T09:15:53.274Z,16.32
2016-04-13T09:16:36.180Z,16.12
2016-04-13T09:17:19.089Z,16.16
2016-04-13T09:18:01.966Z,15.96
2016-04-13T09:18:44.860Z,15.92
2016-04-13T09:19:27.750Z,15.99
2016-04-13T09:20:10.660Z,15.99
2016-04-13T09:20:53.538Z,16
2016-04-13T09:21:36.413Z,16.1
2016-04-13T09:22:19.369Z,16.05
2016-04-13T09:23:02.308Z,15.94
2016-04-13T09:23:45.202Z,15.99
2016-04-13T09:24:28.093Z,16.02
2016-04-13T09:25:10.829Z,16
2016-04-13T09:25:53.738Z,15.92
2016-04-13T09:26:36.613Z,15.9
2016-04-13T09:27:19.491Z,15.96
2016-04-13T09:28:02.369Z,15.92
2016-04-13T09:28:45.278Z,16.03
2016-04-13T09:29:28.185Z,16.12
2016-04-13T09:30:11.062Z,16.17
2016-04-13T09:30:53.955Z,16.26
2016-04-13T09:31:37.457Z,16.26
2016-04-13T09:32:20.348Z,16.16
2016-04-13T09:33:03.101Z,16.18
2016-04-13T09:33:46.134Z,16.18
2016-04-13T09:34:29.025Z,16.03
2016-04-13T09:35:11.934Z,15.9
2016-04-13T09:35:54.828Z,15.84
2016-04-13T09:36:37.705Z,15.8
2016-04-13T09:37:20.627Z,15.7
2016-04-13T09:38:03.552Z,15.73
2016-04-13T09:38:46.445Z,15.76
2016-04-13T09:39:29.336Z,15.88
2016-04-13T09:40:12.229Z,15.87
2016-04-13T09:40:55.122Z,15.84
2016-04-13T09:41:38.016Z,15.84
2016-04-13T09:42:20.906Z,15.94
2016-04-13T09:43:03.784Z,15.99
2016-04-13T09:43:46.692Z,15.85
2016-04-13T09:44:29.567Z,15.9
2016-04-13T09:45:12.492Z,15.9
2016-04-13T09:45:55.386Z,16
2016-04-13T09:46:38.279Z,16.16
2016-04-13T09:47:21.169Z,16.22
2016-04-13T09:48:04.063Z,16.22
2016-04-13T09:48:46.941Z,16.17
2016-04-13T09:49:29.863Z,16.08
2016-04-13T09:50:12.756Z,16.1
2016-04-13T09:50:55.634Z,16.02
2016-04-13T09:51:38.527Z,16.06
2016-04-13T09:52:21.402Z,16.18
2016-04-13T09:53:04.202Z,16.16
2016-04-13T09:53:47.094Z,16.22
2016-04-13T09:54:30.010Z,16.22
2016-04-13T09:55:13.447Z,16.22
2016-04-13T09:55:56.360Z,16.25
2016-04-13T09:56:39.504Z,16.34
2016-04-13T09:57:21.910Z,16.32
2016-04-13T09:58:04.772Z,16.25
2016-04-13T09:58:47.869Z,16.24
2016-04-13T09:59:30.619Z,16.18
2016-04-13T10:00:13.505Z,16.12
2016-04-13T10:00:56.411Z,16.17
2016-04-13T10:01:39.399Z,16.13
2016-04-13T10:02:22.399Z,16.28
